sensor_id;sensor_type;location;lat;lon;timestamp;P1;durP1;ratioP1;P2;durP2;ratioP2
37451;SDS011;23314;51.114;6.900;2022-11-13T00:00:09;20.67;;;17.23;;
37451;SDS011;23314;51.114;6.900;2022-11-13T00:02:35;21.23;;;19.00;;
37451;SDS011;23314;51.114;6.900;2022-11-13T00:05:01;17.37;;;15.43;;
37451;SDS011;23314;51.114;6.900;2022-11-13T00:07:26;16.77;;;14.57;;
37451;SDS011;23314;51.114;6.900;2022-11-13T00:09:52;14.93;;;13.00;;
37451;SDS011;23314;51.114;6.900;2022-11-13T00:12:18;16.57;;;12.80;;
37451;SDS011;23314;51.114;6.900;2022-11-13T00:14:44;16.03;;;11.97;;
37451;SDS011;23314;51.114;6.900;2022-11-13T00:17:09;14.63;;;11.43;;
37451;SDS011;23314;51.114;6.900;2022-11-13T00:19:34;14.53;;;11.20;;
37451;SDS011;23314;51.114;6.900;2022-11-13T00:22:00;16.80;;;11.57;;
37451;SDS011;23314;51.114;6.900;2022-11-13T00:24:25;12.50;;;11.00;;
37451;SDS011;23314;51.114;6.900;2022-11-13T00:26:51;14.50;;;11.90;;
37451;SDS011;23314;51.114;6.900;2022-11-13T00:29:16;15.27;;;11.70;;
37451;SDS011;23314;51.114;6.900;2022-11-13T00:31:41;14.30;;;11.80;;
37451;SDS011;23314;51.114;6.900;2022-11-13T00:34:07;13.60;;;11.57;;
37451;SDS011;23314;51.114;6.900;2022-11-13T00:36:34;14.97;;;11.70;;
37451;SDS011;23314;51.114;6.900;2022-11-13T00:38:59;15.80;;;12.13;;
37451;SDS011;23314;51.114;6.900;2022-11-13T00:41:25;15.20;;;12.37;;
37451;SDS011;23314;51.114;6.900;2022-11-13T00:43:50;14.73;;;11.93;;
37451;SDS011;23314;51.114;6.900;2022-11-13T00:46:16;13.33;;;11.80;;
37451;SDS011;23314;51.114;6.900;2022-11-13T00:48:41;17.83;;;12.27;;
37451;SDS011;23314;51.114;6.900;2022-11-13T00:51:06;13.97;;;10.73;;
37451;SDS011;23314;51.114;6.900;2022-11-13T00:53:32;13.47;;;11.03;;
37451;SDS011;23314;51.114;6.900;2022-11-13T00:55:57;14.77;;;11.07;;
37451;SDS011;23314;51.114;6.900;2022-11-13T00:58:24;16.03;;;11.23;;
37451;SDS011;23314;51.114;6.900;2022-11-13T01:00:50;13.80;;;10.37;;
37451;SDS011;23314;51.114;6.900;2022-11-13T01:03:17;14.23;;;11.27;;
37451;SDS011;23314;51.114;6.900;2022-11-13T01:05:43;12.67;;;10.33;;
37451;SDS011;23314;51.114;6.900;2022-11-13T01:08:10;13.00;;;10.33;;
37451;SDS011;23314;51.114;6.900;2022-11-13T01:10:38;14.47;;;10.60;;
37451;SDS011;23314;51.114;6.900;2022-11-13T01:13:05;11.73;;;9.60;;
37451;SDS011;23314;51.114;6.900;2022-11-13T01:15:31;12.10;;;9.47;;
37451;SDS011;23314;51.114;6.900;2022-11-13T01:17:57;13.17;;;10.07;;
37451;SDS011;23314;51.114;6.900;2022-11-13T01:20:23;13.03;;;10.17;;
37451;SDS011;23314;51.114;6.900;2022-11-13T01:22:48;12.83;;;9.67;;
37451;SDS011;23314;51.114;6.900;2022-11-13T01:25:14;12.10;;;9.60;;
37451;SDS011;23314;51.114;6.900;2022-11-13T01:27:40;11.10;;;9.67;;
37451;SDS011;23314;51.114;6.900;2022-11-13T01:30:05;11.83;;;9.67;;
37451;SDS011;23314;51.114;6.900;2022-11-13T01:32:32;12.13;;;9.23;;
37451;SDS011;23314;51.114;6.900;2022-11-13T01:34:58;12.20;;;9.83;;
37451;SDS011;23314;51.114;6.900;2022-11-13T01:37:23;10.57;;;9.47;;
37451;SDS011;23314;51.114;6.900;2022-11-13T01:39:48;12.23;;;10.10;;
37451;SDS011;23314;51.114;6.900;2022-11-13T01:42:14;12.73;;;10.13;;
37451;SDS011;23314;51.114;6.900;2022-11-13T01:44:46;12.57;;;10.13;;
37451;SDS011;23314;51.114;6.900;2022-11-13T01:47:17;12.53;;;10.60;;
37451;SDS011;23314;51.114;6.900;2022-11-13T01:49:44;10.93;;;9.83;;
37451;SDS011;23314;51.114;6.900;2022-11-13T01:52:14;11.77;;;10.50;;
37451;SDS011;23314;51.114;6.900;2022-11-13T01:54:44;13.13;;;10.47;;
37451;SDS011;23314;51.114;6.900;2022-11-13T01:57:13;12.27;;;10.27;;
37451;SDS011;23314;51.114;6.900;2022-11-13T01:59:41;11.23;;;9.23;;
37451;SDS011;23314;51.114;6.900;2022-11-13T02:02:19;14.10;;;10.17;;
37451;SDS011;23314;51.114;6.900;2022-11-13T02:04:45;15.23;;;10.40;;
37451;SDS011;23314;51.114;6.900;2022-11-13T02:07:12;12.00;;;10.37;;
37451;SDS011;23314;51.114;6.900;2022-11-13T02:09:43;13.43;;;11.13;;
37451;SDS011;23314;51.114;6.900;2022-11-13T02:12:11;14.23;;;11.07;;
37451;SDS011;23314;51.114;6.900;2022-11-13T02:14:43;12.30;;;9.97;;
37451;SDS011;23314;51.114;6.900;2022-11-13T02:17:17;14.90;;;11.00;;
37451;SDS011;23314;51.114;6.900;2022-11-13T02:19:48;13.40;;;10.40;;
37451;SDS011;23314;51.114;6.900;2022-11-13T02:24:52;24.50;;;11.27;;
37451;SDS011;23314;51.114;6.900;2022-11-13T02:27:35;13.70;;;11.00;;
37451;SDS011;23314;51.114;6.900;2022-11-13T02:30:16;15.40;;;10.90;;
37451;SDS011;23314;51.114;6.900;2022-11-13T02:32:47;13.97;;;10.83;;
37451;SDS011;23314;51.114;6.900;2022-11-13T02:35:16;11.67;;;10.10;;
37451;SDS011;23314;51.114;6.900;2022-11-13T02:37:44;12.77;;;10.53;;
37451;SDS011;23314;51.114;6.900;2022-11-13T02:40:10;14.33;;;11.00;;
37451;SDS011;23314;51.114;6.900;2022-11-13T02:42:35;13.70;;;10.73;;
37451;SDS011;23314;51.114;6.900;2022-11-13T02:45:01;13.27;;;10.30;;
37451;SDS011;23314;51.114;6.900;2022-11-13T02:47:27;12.50;;;10.50;;
37451;SDS011;23314;51.114;6.900;2022-11-13T02:49:52;13.03;;;10.90;;
37451;SDS011;23314;51.114;6.900;2022-11-13T02:52:17;12.83;;;10.93;;
37451;SDS011;23314;51.114;6.900;2022-11-13T02:54:43;15.07;;;10.87;;
37451;SDS011;23314;51.114;6.900;2022-11-13T02:57:08;11.37;;;10.07;;
37451;SDS011;23314;51.114;6.900;2022-11-13T02:59:33;13.47;;;10.50;;
37451;SDS011;23314;51.114;6.900;2022-11-13T03:01:59;12.73;;;10.10;;
37451;SDS011;23314;51.114;6.900;2022-11-13T03:04:24;12.47;;;10.20;;
37451;SDS011;23314;51.114;6.900;2022-11-13T03:06:49;14.77;;;10.57;;
37451;SDS011;23314;51.114;6.900;2022-11-13T03:09:15;13.27;;;10.17;;
37451;SDS011;23314;51.114;6.900;2022-11-13T03:11:41;12.70;;;9.77;;
37451;SDS011;23314;51.114;6.900;2022-11-13T03:14:07;12.07;;;10.77;;
37451;SDS011;23314;51.114;6.900;2022-11-13T03:16:33;16.60;;;10.33;;
37451;SDS011;23314;51.114;6.900;2022-11-13T03:18:59;13.17;;;9.90;;
37451;SDS011;23314;51.114;6.900;2022-11-13T03:21:24;14.00;;;9.77;;
37451;SDS011;23314;51.114;6.900;2022-11-13T03:23:50;11.80;;;10.13;;
37451;SDS011;23314;51.114;6.900;2022-11-13T03:26:15;11.27;;;10.07;;
37451;SDS011;23314;51.114;6.900;2022-11-13T03:28:41;14.50;;;10.30;;
37451;SDS011;23314;51.114;6.900;2022-11-13T03:31:07;12.30;;;10.67;;
37451;SDS011;23314;51.114;6.900;2022-11-13T03:33:32;14.03;;;10.17;;
37451;SDS011;23314;51.114;6.900;2022-11-13T03:35:58;11.70;;;9.67;;
37451;SDS011;23314;51.114;6.900;2022-11-13T03:38:23;11.17;;;9.70;;
37451;SDS011;23314;51.114;6.900;2022-11-13T03:40:49;11.90;;;10.27;;
37451;SDS011;23314;51.114;6.900;2022-11-13T03:43:15;12.90;;;10.80;;
37451;SDS011;23314;51.114;6.900;2022-11-13T03:45:43;12.53;;;10.80;;
37451;SDS011;23314;51.114;6.900;2022-11-13T03:48:10;13.30;;;11.03;;
37451;SDS011;23314;51.114;6.900;2022-11-13T03:50:35;14.57;;;11.40;;
37451;SDS011;23314;51.114;6.900;2022-11-13T03:53:00;14.80;;;11.10;;
37451;SDS011;23314;51.114;6.900;2022-11-13T03:55:26;13.23;;;11.13;;
37451;SDS011;23314;51.114;6.900;2022-11-13T03:57:51;15.07;;;11.00;;
37451;SDS011;23314;51.114;6.900;2022-11-13T04:00:16;12.60;;;11.17;;
37451;SDS011;23314;51.114;6.900;2022-11-13T04:02:42;13.87;;;10.70;;
37451;SDS011;23314;51.114;6.900;2022-11-13T04:05:07;13.63;;;11.97;;
37451;SDS011;23314;51.114;6.900;2022-11-13T04:07:33;17.10;;;12.97;;
37451;SDS011;23314;51.114;6.900;2022-11-13T04:09:58;15.73;;;12.20;;
37451;SDS011;23314;51.114;6.900;2022-11-13T04:12:23;14.83;;;12.23;;
37451;SDS011;23314;51.114;6.900;2022-11-13T04:14:49;14.43;;;11.70;;
37451;SDS011;23314;51.114;6.900;2022-11-13T04:17:14;15.50;;;11.33;;
37451;SDS011;23314;51.114;6.900;2022-11-13T04:19:39;14.97;;;10.87;;
37451;SDS011;23314;51.114;6.900;2022-11-13T04:22:05;14.53;;;11.57;;
37451;SDS011;23314;51.114;6.900;2022-11-13T04:24:30;13.33;;;11.60;;
37451;SDS011;23314;51.114;6.900;2022-11-13T04:26:56;15.40;;;10.63;;
37451;SDS011;23314;51.114;6.900;2022-11-13T04:29:21;12.97;;;11.03;;
37451;SDS011;23314;51.114;6.900;2022-11-13T04:31:46;13.80;;;10.83;;
37451;SDS011;23314;51.114;6.900;2022-11-13T04:34:12;12.27;;;10.43;;
37451;SDS011;23314;51.114;6.900;2022-11-13T04:36:37;16.23;;;10.73;;
37451;SDS011;23314;51.114;6.900;2022-11-13T04:39:02;14.90;;;10.97;;
37451;SDS011;23314;51.114;6.900;2022-11-13T04:41:28;15.83;;;10.97;;
37451;SDS011;23314;51.114;6.900;2022-11-13T04:44:12;12.00;;;10.13;;
37451;SDS011;23314;51.114;6.900;2022-11-13T04:46:38;13.00;;;10.27;;
37451;SDS011;23314;51.114;6.900;2022-11-13T04:49:03;13.67;;;9.60;;
37451;SDS011;23314;51.114;6.900;2022-11-13T04:51:28;12.53;;;9.93;;
37451;SDS011;23314;51.114;6.900;2022-11-13T04:53:55;11.07;;;8.53;;
37451;SDS011;23314;51.114;6.900;2022-11-13T04:56:20;10.53;;;9.13;;
37451;SDS011;23314;51.114;6.900;2022-11-13T04:58:45;11.77;;;9.90;;
37451;SDS011;23314;51.114;6.900;2022-11-13T05:01:11;9.53;;;8.53;;
37451;SDS011;23314;51.114;6.900;2022-11-13T05:03:36;10.87;;;8.53;;
37451;SDS011;23314;51.114;6.900;2022-11-13T05:06:06;12.70;;;8.50;;
37451;SDS011;23314;51.114;6.900;2022-11-13T05:08:32;11.33;;;8.97;;
37451;SDS011;23314;51.114;6.900;2022-11-13T05:10:59;10.83;;;8.90;;
37451;SDS011;23314;51.114;6.900;2022-11-13T05:13:25;9.77;;;8.60;;
37451;SDS011;23314;51.114;6.900;2022-11-13T05:16:00;9.10;;;8.20;;
37451;SDS011;23314;51.114;6.900;2022-11-13T05:18:33;9.17;;;7.80;;
37451;SDS011;23314;51.114;6.900;2022-11-13T05:21:03;9.13;;;7.93;;
37451;SDS011;23314;51.114;6.900;2022-11-13T05:23:32;9.20;;;7.97;;
37451;SDS011;23314;51.114;6.900;2022-11-13T05:26:05;9.27;;;7.37;;
37451;SDS011;23314;51.114;6.900;2022-11-13T05:28:33;8.93;;;7.80;;
37451;SDS011;23314;51.114;6.900;2022-11-13T05:31:06;9.73;;;8.20;;
37451;SDS011;23314;51.114;6.900;2022-11-13T05:33:39;11.20;;;8.50;;
37451;SDS011;23314;51.114;6.900;2022-11-13T05:36:10;10.33;;;8.00;;
37451;SDS011;23314;51.114;6.900;2022-11-13T05:38:38;10.17;;;8.87;;
37451;SDS011;23314;51.114;6.900;2022-11-13T05:41:05;9.27;;;8.23;;
37451;SDS011;23314;51.114;6.900;2022-11-13T05:43:32;8.80;;;7.40;;
37451;SDS011;23314;51.114;6.900;2022-11-13T05:46:08;13.30;;;7.90;;
37451;SDS011;23314;51.114;6.900;2022-11-13T05:48:36;10.60;;;7.90;;
37451;SDS011;23314;51.114;6.900;2022-11-13T05:51:03;8.13;;;7.27;;
37451;SDS011;23314;51.114;6.900;2022-11-13T05:53:30;10.43;;;7.83;;
37451;SDS011;23314;51.114;6.900;2022-11-13T05:56:02;9.17;;;7.27;;
37451;SDS011;23314;51.114;6.900;2022-11-13T05:58:29;8.73;;;7.60;;
37451;SDS011;23314;51.114;6.900;2022-11-13T06:01:08;8.60;;;7.80;;
37451;SDS011;23314;51.114;6.900;2022-11-13T06:03:36;9.80;;;7.60;;
37451;SDS011;23314;51.114;6.900;2022-11-13T06:06:02;9.17;;;7.40;;
37451;SDS011;23314;51.114;6.900;2022-11-13T06:08:28;14.90;;;8.00;;
37451;SDS011;23314;51.114;6.900;2022-11-13T06:10:57;10.20;;;7.80;;
37451;SDS011;23314;51.114;6.900;2022-11-13T06:13:26;9.23;;;7.77;;
37451;SDS011;23314;51.114;6.900;2022-11-13T06:15:52;8.67;;;7.80;;
37451;SDS011;23314;51.114;6.900;2022-11-13T06:18:22;10.40;;;7.40;;
37451;SDS011;23314;51.114;6.900;2022-11-13T06:20:48;9.23;;;8.20;;
37451;SDS011;23314;51.114;6.900;2022-11-13T06:23:14;11.60;;;7.97;;
37451;SDS011;23314;51.114;6.900;2022-11-13T06:25:39;8.23;;;7.10;;
37451;SDS011;23314;51.114;6.900;2022-11-13T06:28:05;12.80;;;8.10;;
37451;SDS011;23314;51.114;6.900;2022-11-13T06:30:30;9.50;;;7.80;;
37451;SDS011;23314;51.114;6.900;2022-11-13T06:32:55;11.07;;;8.57;;
37451;SDS011;23314;51.114;6.900;2022-11-13T06:35:21;12.07;;;8.70;;
37451;SDS011;23314;51.114;6.900;2022-11-13T06:37:46;11.37;;;8.53;;
37451;SDS011;23314;51.114;6.900;2022-11-13T06:40:11;11.53;;;8.47;;
37451;SDS011;23314;51.114;6.900;2022-11-13T06:42:37;9.63;;;8.63;;
37451;SDS011;23314;51.114;6.900;2022-11-13T06:45:03;13.23;;;9.30;;
37451;SDS011;23314;51.114;6.900;2022-11-13T06:47:29;10.37;;;8.87;;
37451;SDS011;23314;51.114;6.900;2022-11-13T06:49:54;10.93;;;8.53;;
37451;SDS011;23314;51.114;6.900;2022-11-13T06:52:19;8.77;;;7.87;;
37451;SDS011;23314;51.114;6.900;2022-11-13T06:54:45;10.47;;;8.40;;
37451;SDS011;23314;51.114;6.900;2022-11-13T06:57:10;10.23;;;8.37;;
37451;SDS011;23314;51.114;6.900;2022-11-13T06:59:35;8.90;;;8.00;;
37451;SDS011;23314;51.114;6.900;2022-11-13T07:02:01;9.40;;;8.37;;
37451;SDS011;23314;51.114;6.900;2022-11-13T07:04:27;9.53;;;8.47;;
37451;SDS011;23314;51.114;6.900;2022-11-13T07:06:52;9.10;;;7.43;;
37451;SDS011;23314;51.114;6.900;2022-11-13T07:09:17;11.90;;;9.00;;
37451;SDS011;23314;51.114;6.900;2022-11-13T07:11:43;10.73;;;8.53;;
37451;SDS011;23314;51.114;6.900;2022-11-13T07:14:09;12.00;;;8.17;;
37451;SDS011;23314;51.114;6.900;2022-11-13T07:16:36;16.47;;;11.13;;
37451;SDS011;23314;51.114;6.900;2022-11-13T07:19:01;9.37;;;8.20;;
37451;SDS011;23314;51.114;6.900;2022-11-13T07:21:26;10.27;;;8.63;;
37451;SDS011;23314;51.114;6.900;2022-11-13T07:23:52;9.57;;;8.57;;
37451;SDS011;23314;51.114;6.900;2022-11-13T07:26:17;10.13;;;8.73;;
37451;SDS011;23314;51.114;6.900;2022-11-13T07:28:43;16.20;;;11.80;;
37451;SDS011;23314;51.114;6.900;2022-11-13T07:31:08;15.17;;;10.60;;
37451;SDS011;23314;51.114;6.900;2022-11-13T07:33:36;16.70;;;11.33;;
37451;SDS011;23314;51.114;6.900;2022-11-13T07:36:01;11.63;;;9.20;;
37451;SDS011;23314;51.114;6.900;2022-11-13T07:38:27;10.20;;;8.70;;
37451;SDS011;23314;51.114;6.900;2022-11-13T07:40:52;9.87;;;8.80;;
37451;SDS011;23314;51.114;6.900;2022-11-13T07:43:18;10.47;;;8.53;;
37451;SDS011;23314;51.114;6.900;2022-11-13T07:45:43;9.87;;;8.23;;
37451;SDS011;23314;51.114;6.900;2022-11-13T07:48:09;10.90;;;8.60;;
37451;SDS011;23314;51.114;6.900;2022-11-13T07:50:35;9.90;;;8.03;;
37451;SDS011;23314;51.114;6.900;2022-11-13T07:53:03;9.30;;;8.30;;
37451;SDS011;23314;51.114;6.900;2022-11-13T07:55:31;10.00;;;8.10;;
37451;SDS011;23314;51.114;6.900;2022-11-13T07:57:58;9.13;;;7.97;;
37451;SDS011;23314;51.114;6.900;2022-11-13T08:00:25;9.40;;;8.40;;
37451;SDS011;23314;51.114;6.900;2022-11-13T08:02:52;9.93;;;8.30;;
37451;SDS011;23314;51.114;6.900;2022-11-13T08:05:18;9.90;;;7.87;;
37451;SDS011;23314;51.114;6.900;2022-11-13T08:07:47;10.47;;;8.20;;
37451;SDS011;23314;51.114;6.900;2022-11-13T08:10:13;8.57;;;7.63;;
37451;SDS011;23314;51.114;6.900;2022-11-13T08:12:39;8.80;;;7.63;;
37451;SDS011;23314;51.114;6.900;2022-11-13T08:15:05;9.57;;;8.00;;
37451;SDS011;23314;51.114;6.900;2022-11-13T08:17:30;9.90;;;7.00;;
37451;SDS011;23314;51.114;6.900;2022-11-13T08:19:56;10.40;;;6.53;;
37451;SDS011;23314;51.114;6.900;2022-11-13T08:22:21;8.20;;;6.53;;
37451;SDS011;23314;51.114;6.900;2022-11-13T08:24:47;11.43;;;6.43;;
37451;SDS011;23314;51.114;6.900;2022-11-13T08:27:12;10.13;;;6.63;;
37451;SDS011;23314;51.114;6.900;2022-11-13T08:29:38;7.13;;;6.00;;
37451;SDS011;23314;51.114;6.900;2022-11-13T08:32:03;6.37;;;5.70;;
37451;SDS011;23314;51.114;6.900;2022-11-13T08:34:31;7.80;;;6.67;;
37451;SDS011;23314;51.114;6.900;2022-11-13T08:36:56;6.10;;;5.50;;
37451;SDS011;23314;51.114;6.900;2022-11-13T08:39:22;6.23;;;5.60;;
37451;SDS011;23314;51.114;6.900;2022-11-13T08:41:48;7.13;;;5.80;;
37451;SDS011;23314;51.114;6.900;2022-11-13T08:44:13;7.13;;;6.10;;
37451;SDS011;23314;51.114;6.900;2022-11-13T08:46:39;8.60;;;5.80;;
37451;SDS011;23314;51.114;6.900;2022-11-13T08:49:04;5.90;;;5.30;;
37451;SDS011;23314;51.114;6.900;2022-11-13T08:51:30;7.40;;;6.13;;
37451;SDS011;23314;51.114;6.900;2022-11-13T08:53:55;7.50;;;5.73;;
37451;SDS011;23314;51.114;6.900;2022-11-13T08:56:20;6.73;;;6.03;;
37451;SDS011;23314;51.114;6.900;2022-11-13T08:58:46;6.73;;;5.97;;
37451;SDS011;23314;51.114;6.900;2022-11-13T09:01:11;8.77;;;6.20;;
37451;SDS011;23314;51.114;6.900;2022-11-13T09:03:42;7.27;;;5.60;;
37451;SDS011;23314;51.114;6.900;2022-11-13T09:06:07;6.23;;;5.60;;
37451;SDS011;23314;51.114;6.900;2022-11-13T09:08:35;6.53;;;5.40;;
37451;SDS011;23314;51.114;6.900;2022-11-13T09:11:01;7.03;;;6.17;;
37451;SDS011;23314;51.114;6.900;2022-11-13T09:13:31;6.20;;;5.60;;
37451;SDS011;23314;51.114;6.900;2022-11-13T09:15:58;7.20;;;5.73;;
37451;SDS011;23314;51.114;6.900;2022-11-13T09:18:24;6.67;;;5.20;;
37451;SDS011;23314;51.114;6.900;2022-11-13T09:20:50;9.03;;;6.90;;
37451;SDS011;23314;51.114;6.900;2022-11-13T09:23:15;6.23;;;5.20;;
37451;SDS011;23314;51.114;6.900;2022-11-13T09:25:40;5.40;;;4.90;;
37451;SDS011;23314;51.114;6.900;2022-11-13T09:28:06;7.97;;;5.57;;
37451;SDS011;23314;51.114;6.900;2022-11-13T09:30:31;7.10;;;4.57;;
37451;SDS011;23314;51.114;6.900;2022-11-13T09:32:58;6.70;;;4.67;;
37451;SDS011;23314;51.114;6.900;2022-11-13T09:35:25;6.63;;;4.63;;
37451;SDS011;23314;51.114;6.900;2022-11-13T09:38:01;5.80;;;5.20;;
37451;SDS011;23314;51.114;6.900;2022-11-13T09:40:32;6.43;;;5.00;;
37451;SDS011;23314;51.114;6.900;2022-11-13T09:43:01;5.67;;;5.13;;
37451;SDS011;23314;51.114;6.900;2022-11-13T09:45:30;6.97;;;5.07;;
37451;SDS011;23314;51.114;6.900;2022-11-13T09:47:58;6.37;;;5.73;;
37451;SDS011;23314;51.114;6.900;2022-11-13T09:50:44;5.10;;;4.70;;
37451;SDS011;23314;51.114;6.900;2022-11-13T09:53:13;7.40;;;4.97;;
37451;SDS011;23314;51.114;6.900;2022-11-13T09:55:40;5.03;;;4.60;;
37451;SDS011;23314;51.114;6.900;2022-11-13T09:58:30;7.43;;;4.60;;
37451;SDS011;23314;51.114;6.900;2022-11-13T10:01:14;7.03;;;4.50;;
37451;SDS011;23314;51.114;6.900;2022-11-13T10:03:46;4.40;;;4.00;;
37451;SDS011;23314;51.114;6.900;2022-11-13T10:09:18;5.97;;;4.27;;
37451;SDS011;23314;51.114;6.900;2022-11-13T10:11:57;4.93;;;4.10;;
37451;SDS011;23314;51.114;6.900;2022-11-13T10:17:14;6.87;;;3.37;;
37451;SDS011;23314;51.114;6.900;2022-11-13T10:20:01;4.40;;;3.77;;
37451;SDS011;23314;51.114;6.900;2022-11-13T10:25:20;4.30;;;3.87;;
37451;SDS011;23314;51.114;6.900;2022-11-13T10:28:00;4.20;;;3.80;;
37451;SDS011;23314;51.114;6.900;2022-11-13T10:30:26;3.50;;;3.20;;
37451;SDS011;23314;51.114;6.900;2022-11-13T10:32:53;3.33;;;3.03;;
37451;SDS011;23314;51.114;6.900;2022-11-13T10:41:06;6.27;;;3.20;;
37451;SDS011;23314;51.114;6.900;2022-11-13T10:43:47;3.07;;;2.77;;
37451;SDS011;23314;51.114;6.900;2022-11-13T10:46:21;2.73;;;2.53;;
37451;SDS011;23314;51.114;6.900;2022-11-13T10:48:48;2.60;;;2.40;;
37451;SDS011;23314;51.114;6.900;2022-11-13T10:51:28;4.23;;;2.80;;
37451;SDS011;23314;51.114;6.900;2022-11-13T10:53:56;2.87;;;2.60;;
37451;SDS011;23314;51.114;6.900;2022-11-13T10:56:26;2.90;;;2.60;;
37451;SDS011;23314;51.114;6.900;2022-11-13T10:59:13;4.40;;;2.60;;
37451;SDS011;23314;51.114;6.900;2022-11-13T11:01:40;4.83;;;3.20;;
37451;SDS011;23314;51.114;6.900;2022-11-13T11:04:19;3.10;;;2.77;;
37451;SDS011;23314;51.114;6.900;2022-11-13T11:06:46;2.97;;;2.77;;
37451;SDS011;23314;51.114;6.900;2022-11-13T11:09:24;4.87;;;3.10;;
37451;SDS011;23314;51.114;6.900;2022-11-13T11:11:57;3.57;;;3.10;;
37451;SDS011;23314;51.114;6.900;2022-11-13T11:17:30;5.70;;;2.97;;
37451;SDS011;23314;51.114;6.900;2022-11-13T11:20:05;5.70;;;3.57;;
37451;SDS011;23314;51.114;6.900;2022-11-13T11:22:34;4.30;;;3.20;;
37451;SDS011;23314;51.114;6.900;2022-11-13T11:25:13;3.40;;;3.10;;
37451;SDS011;23314;51.114;6.900;2022-11-13T11:34:33;2.90;;;2.53;;
37451;SDS011;23314;51.114;6.900;2022-11-13T11:37:30;3.90;;;3.03;;
37451;SDS011;23314;51.114;6.900;2022-11-13T11:40:13;5.40;;;3.20;;
37451;SDS011;23314;51.114;6.900;2022-11-13T11:43:00;3.67;;;3.10;;
37451;SDS011;23314;51.114;6.900;2022-11-13T11:45:42;4.80;;;3.70;;
37451;SDS011;23314;51.114;6.900;2022-11-13T11:48:12;7.00;;;3.13;;
37451;SDS011;23314;51.114;6.900;2022-11-13T11:53:28;3.67;;;3.33;;
37451;SDS011;23314;51.114;6.900;2022-11-13T11:58:49;3.97;;;3.50;;
37451;SDS011;23314;51.114;6.900;2022-11-13T12:07:12;4.27;;;3.37;;
37451;SDS011;23314;51.114;6.900;2022-11-13T12:12:42;3.80;;;3.33;;
37451;SDS011;23314;51.114;6.900;2022-11-13T12:18:09;4.33;;;3.20;;
37451;SDS011;23314;51.114;6.900;2022-11-13T12:26:17;3.27;;;2.97;;
37451;SDS011;23314;51.114;6.900;2022-11-13T12:28:54;3.53;;;3.10;;
37451;SDS011;23314;51.114;6.900;2022-11-13T12:36:52;3.87;;;2.77;;
37451;SDS011;23314;51.114;6.900;2022-11-13T12:39:30;3.17;;;2.87;;
37451;SDS011;23314;51.114;6.900;2022-11-13T12:44:53;2.67;;;2.47;;
37451;SDS011;23314;51.114;6.900;2022-11-13T12:47:26;2.97;;;2.67;;
37451;SDS011;23314;51.114;6.900;2022-11-13T12:49:58;4.57;;;2.73;;
37451;SDS011;23314;51.114;6.900;2022-11-13T12:52:25;5.03;;;2.47;;
37451;SDS011;23314;51.114;6.900;2022-11-13T12:55:01;4.97;;;2.80;;
37451;SDS011;23314;51.114;6.900;2022-11-13T12:57:28;2.40;;;2.20;;
37451;SDS011;23314;51.114;6.900;2022-11-13T13:00:18;19.70;;;5.03;;
37451;SDS011;23314;51.114;6.900;2022-11-13T13:02:49;2.73;;;2.53;;
37451;SDS011;23314;51.114;6.900;2022-11-13T13:08:08;2.50;;;2.30;;
37451;SDS011;23314;51.114;6.900;2022-11-13T13:13:46;3.70;;;3.50;;
37451;SDS011;23314;51.114;6.900;2022-11-13T13:16:25;3.20;;;2.60;;
37451;SDS011;23314;51.114;6.900;2022-11-13T13:18:52;2.87;;;2.50;;
37451;SDS011;23314;51.114;6.900;2022-11-13T13:21:18;13.20;;;6.50;;
37451;SDS011;23314;51.114;6.900;2022-11-13T13:23:49;4.07;;;3.07;;
37451;SDS011;23314;51.114;6.900;2022-11-13T13:26:19;3.33;;;2.53;;
37451;SDS011;23314;51.114;6.900;2022-11-13T13:28:51;3.30;;;2.47;;
37451;SDS011;23314;51.114;6.900;2022-11-13T13:31:28;3.03;;;2.83;;
37451;SDS011;23314;51.114;6.900;2022-11-13T13:47:51;3.87;;;3.20;;
37451;SDS011;23314;51.114;6.900;2022-11-13T13:50:23;3.20;;;2.90;;
37451;SDS011;23314;51.114;6.900;2022-11-13T13:52:50;3.13;;;2.83;;
37451;SDS011;23314;51.114;6.900;2022-11-13T13:55:22;3.90;;;2.57;;
37451;SDS011;23314;51.114;6.900;2022-11-13T13:57:49;2.70;;;2.50;;
37451;SDS011;23314;51.114;6.900;2022-11-13T14:00:15;2.63;;;2.30;;
37451;SDS011;23314;51.114;6.900;2022-11-13T14:02:47;2.87;;;2.57;;
37451;SDS011;23314;51.114;6.900;2022-11-13T14:05:24;2.63;;;2.43;;
37451;SDS011;23314;51.114;6.900;2022-11-13T14:07:52;2.90;;;2.70;;
37451;SDS011;23314;51.114;6.900;2022-11-13T14:10:18;3.07;;;2.70;;
37451;SDS011;23314;51.114;6.900;2022-11-13T14:12:46;3.00;;;2.47;;
37451;SDS011;23314;51.114;6.900;2022-11-13T14:17:49;2.53;;;2.37;;
37451;SDS011;23314;51.114;6.900;2022-11-13T14:20:15;2.63;;;2.40;;
37451;SDS011;23314;51.114;6.900;2022-11-13T14:22:41;2.80;;;2.60;;
37451;SDS011;23314;51.114;6.900;2022-11-13T14:25:16;2.53;;;2.40;;
37451;SDS011;23314;51.114;6.900;2022-11-13T14:27:48;2.47;;;2.27;;
37451;SDS011;23314;51.114;6.900;2022-11-13T14:30:24;3.90;;;2.53;;
37451;SDS011;23314;51.114;6.900;2022-11-13T14:32:52;3.60;;;2.40;;
37451;SDS011;23314;51.114;6.900;2022-11-13T14:35:19;3.13;;;2.83;;
37451;SDS011;23314;51.114;6.900;2022-11-13T14:37:46;3.00;;;2.47;;
37451;SDS011;23314;51.114;6.900;2022-11-13T14:40:18;2.67;;;2.47;;
37451;SDS011;23314;51.114;6.900;2022-11-13T14:42:55;2.53;;;2.33;;
37451;SDS011;23314;51.114;6.900;2022-11-13T14:45:24;2.57;;;2.20;;
37451;SDS011;23314;51.114;6.900;2022-11-13T14:47:55;2.90;;;2.60;;
37451;SDS011;23314;51.114;6.900;2022-11-13T14:50:23;3.47;;;2.70;;
37451;SDS011;23314;51.114;6.900;2022-11-13T14:53:10;2.90;;;2.63;;
37451;SDS011;23314;51.114;6.900;2022-11-13T14:55:36;2.70;;;2.50;;
37451;SDS011;23314;51.114;6.900;2022-11-13T14:58:14;2.70;;;2.50;;
37451;SDS011;23314;51.114;6.900;2022-11-13T15:00:54;3.10;;;2.80;;
37451;SDS011;23314;51.114;6.900;2022-11-13T15:03:21;3.57;;;3.00;;
37451;SDS011;23314;51.114;6.900;2022-11-13T15:05:47;2.70;;;2.50;;
37451;SDS011;23314;51.114;6.900;2022-11-13T15:08:13;4.77;;;3.17;;
37451;SDS011;23314;51.114;6.900;2022-11-13T15:10:38;3.73;;;2.57;;
37451;SDS011;23314;51.114;6.900;2022-11-13T15:13:11;4.57;;;3.10;;
37451;SDS011;23314;51.114;6.900;2022-11-13T15:15:38;4.73;;;3.00;;
37451;SDS011;23314;51.114;6.900;2022-11-13T15:18:04;4.20;;;2.80;;
37451;SDS011;23314;51.114;6.900;2022-11-13T15:20:31;3.00;;;2.70;;
37451;SDS011;23314;51.114;6.900;2022-11-13T15:22:57;2.97;;;2.77;;
37451;SDS011;23314;51.114;6.900;2022-11-13T15:25:24;3.20;;;2.73;;
37451;SDS011;23314;51.114;6.900;2022-11-13T15:27:53;4.93;;;3.03;;
37451;SDS011;23314;51.114;6.900;2022-11-13T15:30:18;3.33;;;3.03;;
37451;SDS011;23314;51.114;6.900;2022-11-13T15:32:45;4.83;;;4.33;;
37451;SDS011;23314;51.114;6.900;2022-11-13T15:35:15;7.27;;;6.30;;
37451;SDS011;23314;51.114;6.900;2022-11-13T15:37:41;5.50;;;4.90;;
37451;SDS011;23314;51.114;6.900;2022-11-13T15:40:07;5.63;;;3.90;;
37451;SDS011;23314;51.114;6.900;2022-11-13T15:42:33;4.00;;;3.67;;
37451;SDS011;23314;51.114;6.900;2022-11-13T15:44:59;13.40;;;6.57;;
37451;SDS011;23314;51.114;6.900;2022-11-13T15:47:29;6.47;;;4.40;;
37451;SDS011;23314;51.114;6.900;2022-11-13T15:49:59;8.80;;;4.60;;
37451;SDS011;23314;51.114;6.900;2022-11-13T15:52:26;7.77;;;4.13;;
37451;SDS011;23314;51.114;6.900;2022-11-13T15:54:53;4.87;;;4.07;;
37451;SDS011;23314;51.114;6.900;2022-11-13T15:57:20;7.13;;;4.43;;
37451;SDS011;23314;51.114;6.900;2022-11-13T15:59:48;4.47;;;3.87;;
37451;SDS011;23314;51.114;6.900;2022-11-13T16:02:14;6.07;;;4.50;;
37451;SDS011;23314;51.114;6.900;2022-11-13T16:04:39;11.00;;;4.87;;